sensor_id;sensor_type;location;lat;lon;timestamp;pressure;altitude;pressure_sealevel;temperature;humidity
53546;BME280;39432;51.902;10.844;2023-06-04T00:00:56;100051.47;;;10.52;100.00
53546;BME280;39432;51.902;10.844;2023-06-04T00:03:27;100058.19;;;10.33;100.00
53546;BME280;39432;51.902;10.844;2023-06-04T00:05:59;100060.97;;;10.21;100.00
53546;BME280;39432;51.902;10.844;2023-06-04T00:08:29;100051.78;;;10.39;100.00
53546;BME280;39432;51.902;10.844;2023-06-04T00:10:59;100057.56;;;10.42;99.74
53546;BME280;39432;51.902;10.844;2023-06-04T00:13:29;100054.75;;;10.37;99.37
53546;BME280;39432;51.902;10.844;2023-06-04T00:15:58;100050.41;;;10.24;99.67
53546;BME280;39432;51.902;10.844;2023-06-04T00:18:28;100046.88;;;10.41;99.71
53546;BME280;39432;51.902;10.844;2023-06-04T00:21:01;100052.06;;;10.14;98.88
53546;BME280;39432;51.902;10.844;2023-06-04T00:23:31;100050.06;;;10.09;100.00
53546;BME280;39432;51.902;10.844;2023-06-04T00:26:03;100045.22;;;10.11;100.00
53546;BME280;39432;51.902;10.844;2023-06-04T00:28:33;100053.03;;;9.79;100.00
53546;BME280;39432;51.902;10.844;2023-06-04T00:31:05;100051.00;;;9.74;100.00
53546;BME280;39432;51.902;10.844;2023-06-04T00:33:35;100048.53;;;9.73;100.00
53546;BME280;39432;51.902;10.844;2023-06-04T00:36:08;100045.44;;;9.69;100.00
53546;BME280;39432;51.902;10.844;2023-06-04T00:38:38;100045.56;;;9.74;100.00
53546;BME280;39432;51.902;10.844;2023-06-04T00:41:07;100047.00;;;9.65;100.00
53546;BME280;39432;51.902;10.844;2023-06-04T00:43:37;100045.09;;;9.54;100.00
53546;BME280;39432;51.902;10.844;2023-06-04T00:46:07;100046.09;;;10.00;100.00
53546;BME280;39432;51.902;10.844;2023-06-04T00:48:45;100040.84;;;9.58;100.00
53546;BME280;39432;51.902;10.844;2023-06-04T00:51:18;100039.00;;;9.75;100.00
53546;BME280;39432;51.902;10.844;2023-06-04T00:53:48;100046.31;;;9.58;100.00
53546;BME280;39432;51.902;10.844;2023-06-04T00:56:19;100049.66;;;9.37;100.00
53546;BME280;39432;51.902;10.844;2023-06-04T00:58:48;100044.19;;;9.37;100.00
53546;BME280;39432;51.902;10.844;2023-06-04T01:01:24;100046.78;;;9.43;100.00
53546;BME280;39432;51.902;10.844;2023-06-04T01:03:59;100043.19;;;9.66;100.00
53546;BME280;39432;51.902;10.844;2023-06-04T01:06:36;100045.03;;;9.89;100.00
53546;BME280;39432;51.902;10.844;2023-06-04T01:09:07;100048.63;;;9.66;100.00
53546;BME280;39432;51.902;10.844;2023-06-04T01:11:38;100047.28;;;9.29;100.00
53546;BME280;39432;51.902;10.844;2023-06-04T01:14:09;100043.84;;;9.21;100.00
53546;BME280;39432;51.902;10.844;2023-06-04T01:16:42;100047.84;;;9.54;100.00
53546;BME280;39432;51.902;10.844;2023-06-04T01:19:39;100049.53;;;9.32;100.00
53546;BME280;39432;51.902;10.844;2023-06-04T01:22:29;100048.59;;;9.26;100.00
53546;BME280;39432;51.902;10.844;2023-06-04T01:25:03;100039.22;;;10.14;100.00
53546;BME280;39432;51.902;10.844;2023-06-04T01:27:35;100037.16;;;9.93;100.00
53546;BME280;39432;51.902;10.844;2023-06-04T01:30:08;100041.91;;;9.57;100.00
53546;BME280;39432;51.902;10.844;2023-06-04T01:32:39;100043.00;;;8.86;100.00
53546;BME280;39432;51.902;10.844;2023-06-04T01:35:11;100044.13;;;8.66;100.00
53546;BME280;39432;51.902;10.844;2023-06-04T01:37:43;100046.56;;;9.10;100.00
53546;BME280;39432;51.902;10.844;2023-06-04T01:40:14;100038.19;;;8.46;100.00
53546;BME280;39432;51.902;10.844;2023-06-04T01:42:44;100050.09;;;8.75;100.00
53546;BME280;39432;51.902;10.844;2023-06-04T01:45:14;100043.53;;;9.70;100.00
53546;BME280;39432;51.902;10.844;2023-06-04T01:47:44;100042.75;;;8.76;100.00
53546;BME280;39432;51.902;10.844;2023-06-04T01:50:14;100043.25;;;9.19;100.00
53546;BME280;39432;51.902;10.844;2023-06-04T01:52:46;100047.72;;;9.49;100.00
53546;BME280;39432;51.902;10.844;2023-06-04T01:55:17;100033.94;;;9.56;100.00
53546;BME280;39432;51.902;10.844;2023-06-04T01:57:47;100038.25;;;9.40;100.00
53546;BME280;39432;51.902;10.844;2023-06-04T02:00:17;100037.88;;;9.48;100.00
53546;BME280;39432;51.902;10.844;2023-06-04T02:02:47;100032.53;;;9.93;100.00
53546;BME280;39432;51.902;10.844;2023-06-04T02:05:17;100035.00;;;9.55;100.00
53546;BME280;39432;51.902;10.844;2023-06-04T02:07:50;100037.78;;;9.19;100.00
53546;BME280;39432;51.902;10.844;2023-06-04T02:10:20;100037.78;;;8.96;100.00
53546;BME280;39432;51.902;10.844;2023-06-04T02:12:54;100035.41;;;9.11;100.00
53546;BME280;39432;51.902;10.844;2023-06-04T02:15:26;100031.72;;;8.82;100.00
53546;BME280;39432;51.902;10.844;2023-06-04T02:17:57;100044.66;;;8.87;100.00
53546;BME280;39432;51.902;10.844;2023-06-04T02:20:29;100038.63;;;8.96;100.00
53546;BME280;39432;51.902;10.844;2023-06-04T02:23:02;100042.38;;;8.72;100.00
53546;BME280;39432;51.902;10.844;2023-06-04T02:25:31;100032.91;;;9.21;100.00
53546;BME280;39432;51.902;10.844;2023-06-04T02:28:01;100038.25;;;9.16;100.00
53546;BME280;39432;51.902;10.844;2023-06-04T02:30:31;100041.34;;;8.85;100.00
53546;BME280;39432;51.902;10.844;2023-06-04T02:33:01;100032.31;;;9.19;100.00
53546;BME280;39432;51.902;10.844;2023-06-04T02:35:31;100024.50;;;9.35;100.00
53546;BME280;39432;51.902;10.844;2023-06-04T02:38:04;100036.69;;;9.32;100.00
53546;BME280;39432;51.902;10.844;2023-06-04T02:40:33;100029.22;;;8.81;100.00
53546;BME280;39432;51.902;10.844;2023-06-04T02:43:03;100034.44;;;8.82;100.00
53546;BME280;39432;51.902;10.844;2023-06-04T02:45:33;100026.13;;;8.65;100.00
53546;BME280;39432;51.902;10.844;2023-06-04T02:48:03;100035.88;;;8.85;100.00
53546;BME280;39432;51.902;10.844;2023-06-04T02:50:33;100035.53;;;8.39;100.00
53546;BME280;39432;51.902;10.844;2023-06-04T02:53:05;100039.44;;;8.74;100.00
53546;BME280;39432;51.902;10.844;2023-06-04T02:55:35;100034.38;;;8.47;100.00
53546;BME280;39432;51.902;10.844;2023-06-04T02:58:05;100038.06;;;8.23;100.00
53546;BME280;39432;51.902;10.844;2023-06-04T03:00:35;100034.47;;;8.10;100.00
53546;BME280;39432;51.902;10.844;2023-06-04T03:03:05;100036.41;;;8.22;100.00
53546;BME280;39432;51.902;10.844;2023-06-04T03:05:35;100041.28;;;8.01;100.00
53546;BME280;39432;51.902;10.844;2023-06-04T03:08:09;100043.88;;;8.26;100.00
53546;BME280;39432;51.902;10.844;2023-06-04T03:10:39;100037.25;;;8.52;100.00
53546;BME280;39432;51.902;10.844;2023-06-04T03:13:08;100040.97;;;8.09;100.00
53546;BME280;39432;51.902;10.844;2023-06-04T03:15:38;100044.81;;;8.50;100.00
53546;BME280;39432;51.902;10.844;2023-06-04T03:18:08;100044.44;;;8.16;100.00
53546;BME280;39432;51.902;10.844;2023-06-04T03:20:38;100045.41;;;8.22;100.00
53546;BME280;39432;51.902;10.844;2023-06-04T03:23:10;100042.69;;;8.22;100.00
53546;BME280;39432;51.902;10.844;2023-06-04T03:25:40;100044.63;;;8.03;100.00
53546;BME280;39432;51.902;10.844;2023-06-04T03:28:10;100041.41;;;8.25;100.00
53546;BME280;39432;51.902;10.844;2023-06-04T03:30:41;100047.84;;;7.82;100.00
53546;BME280;39432;51.902;10.844;2023-06-04T03:33:11;100049.09;;;8.46;100.00
53546;BME280;39432;51.902;10.844;2023-06-04T03:35:41;100045.69;;;8.02;100.00
53546;BME280;39432;51.902;10.844;2023-06-04T03:38:13;100040.66;;;8.36;100.00
53546;BME280;39432;51.902;10.844;2023-06-04T03:40:43;100047.72;;;8.79;100.00
53546;BME280;39432;51.902;10.844;2023-06-04T03:43:13;100051.56;;;9.24;100.00
53546;BME280;39432;51.902;10.844;2023-06-04T03:45:43;100052.72;;;9.05;100.00
53546;BME280;39432;51.902;10.844;2023-06-04T03:48:14;100045.84;;;8.91;100.00
53546;BME280;39432;51.902;10.844;2023-06-04T03:50:44;100046.78;;;9.32;100.00
53546;BME280;39432;51.902;10.844;2023-06-04T03:53:17;100043.00;;;9.33;100.00
53546;BME280;39432;51.902;10.844;2023-06-04T03:55:47;100037.06;;;9.36;100.00
53546;BME280;39432;51.902;10.844;2023-06-04T03:58:17;100043.78;;;9.68;100.00
53546;BME280;39432;51.902;10.844;2023-06-04T04:00:49;100040.88;;;10.55;100.00
53546;BME280;39432;51.902;10.844;2023-06-04T04:03:19;100045.00;;;10.58;99.49
53546;BME280;39432;51.902;10.844;2023-06-04T04:05:50;100036.09;;;11.35;96.00
53546;BME280;39432;51.902;10.844;2023-06-04T04:08:22;100034.22;;;11.19;93.25
53546;BME280;39432;51.902;10.844;2023-06-04T04:10:53;100039.16;;;11.39;91.96
53546;BME280;39432;51.902;10.844;2023-06-04T04:13:23;100038.22;;;11.50;91.10
53546;BME280;39432;51.902;10.844;2023-06-04T04:15:53;100032.84;;;11.99;89.15
53546;BME280;39432;51.902;10.844;2023-06-04T04:18:23;100034.75;;;11.76;86.46
53546;BME280;39432;51.902;10.844;2023-06-04T04:20:53;100037.78;;;11.58;88.31
53546;BME280;39432;51.902;10.844;2023-06-04T04:23:26;100033.44;;;11.62;87.64
53546;BME280;39432;51.902;10.844;2023-06-04T04:25:58;100030.50;;;11.85;87.98
53546;BME280;39432;51.902;10.844;2023-06-04T04:28:29;100033.28;;;12.66;85.10
53546;BME280;39432;51.902;10.844;2023-06-04T04:30:59;100040.09;;;13.76;77.77
53546;BME280;39432;51.902;10.844;2023-06-04T04:33:33;100038.22;;;13.34;74.83
53546;BME280;39432;51.902;10.844;2023-06-04T04:36:09;100037.72;;;14.00;74.31
53546;BME280;39432;51.902;10.844;2023-06-04T04:38:47;100036.28;;;14.75;71.89
53546;BME280;39432;51.902;10.844;2023-06-04T04:41:27;100040.09;;;15.15;69.12
53546;BME280;39432;51.902;10.844;2023-06-04T04:44:02;100044.50;;;14.55;69.03
53546;BME280;39432;51.902;10.844;2023-06-04T04:46:33;100042.00;;;13.70;71.83
53546;BME280;39432;51.902;10.844;2023-06-04T04:49:02;100046.06;;;13.62;77.39
53546;BME280;39432;51.902;10.844;2023-06-04T04:51:32;100042.50;;;14.24;76.23
53546;BME280;39432;51.902;10.844;2023-06-04T04:54:05;100055.59;;;13.92;76.74
53546;BME280;39432;51.902;10.844;2023-06-04T04:56:35;100047.25;;;15.31;73.24
53546;BME280;39432;51.902;10.844;2023-06-04T04:59:05;100051.13;;;15.15;70.74
53546;BME280;39432;51.902;10.844;2023-06-04T05:01:35;100049.28;;;16.05;63.72
53546;BME280;39432;51.902;10.844;2023-06-04T05:04:05;100051.69;;;16.72;58.29
53546;BME280;39432;51.902;10.844;2023-06-04T05:06:40;100051.06;;;17.14;55.06
53546;BME280;39432;51.902;10.844;2023-06-04T05:09:12;100053.00;;;16.79;54.61
53546;BME280;39432;51.902;10.844;2023-06-04T05:11:43;100048.44;;;17.28;53.73
53546;BME280;39432;51.902;10.844;2023-06-04T05:14:13;100054.69;;;17.68;52.83
53546;BME280;39432;51.902;10.844;2023-06-04T05:16:44;100054.72;;;17.62;54.11
53546;BME280;39432;51.902;10.844;2023-06-04T05:19:16;100059.94;;;17.69;53.42
53546;BME280;39432;51.902;10.844;2023-06-04T05:21:46;100054.78;;;17.57;54.76
53546;BME280;39432;51.902;10.844;2023-06-04T05:24:19;100056.84;;;17.76;54.01
53546;BME280;39432;51.902;10.844;2023-06-04T05:26:49;100064.06;;;17.72;52.26
53546;BME280;39432;51.902;10.844;2023-06-04T05:29:21;100062.13;;;17.43;52.78
53546;BME280;39432;51.902;10.844;2023-06-04T05:31:51;100059.97;;;18.92;50.88
53546;BME280;39432;51.902;10.844;2023-06-04T05:34:22;100056.63;;;18.77;49.52
53546;BME280;39432;51.902;10.844;2023-06-04T05:36:54;100059.19;;;19.06;48.88
53546;BME280;39432;51.902;10.844;2023-06-04T05:39:28;100054.88;;;20.06;46.83
53546;BME280;39432;51.902;10.844;2023-06-04T05:42:05;100058.56;;;19.88;46.63
53546;BME280;39432;51.902;10.844;2023-06-04T05:44:36;100052.97;;;20.29;46.82
53546;BME280;39432;51.902;10.844;2023-06-04T05:47:08;100064.34;;;18.80;50.43
53546;BME280;39432;51.902;10.844;2023-06-04T05:49:38;100065.06;;;19.37;49.53
53546;BME280;39432;51.902;10.844;2023-06-04T05:52:08;100058.97;;;20.22;48.72
53546;BME280;39432;51.902;10.844;2023-06-04T05:54:42;100061.75;;;20.72;47.56
53546;BME280;39432;51.902;10.844;2023-06-04T05:57:12;100062.03;;;21.07;46.99
53546;BME280;39432;51.902;10.844;2023-06-04T05:59:42;100063.13;;;19.51;46.99
53546;BME280;39432;51.902;10.844;2023-06-04T06:02:15;100057.22;;;21.44;45.25
53546;BME280;39432;51.902;10.844;2023-06-04T06:04:45;100060.53;;;20.65;45.05
53546;BME280;39432;51.902;10.844;2023-06-04T06:07:14;100065.34;;;22.02;44.45
53546;BME280;39432;51.902;10.844;2023-06-04T06:09:48;100067.22;;;21.00;43.92
53546;BME280;39432;51.902;10.844;2023-06-04T06:12:19;100066.81;;;22.83;42.89
53546;BME280;39432;51.902;10.844;2023-06-04T06:14:49;100070.47;;;20.57;46.45
53546;BME280;39432;51.902;10.844;2023-06-04T06:17:18;100068.63;;;22.53;44.69
53546;BME280;39432;51.902;10.844;2023-06-04T06:19:48;100071.88;;;20.68;45.47
53546;BME280;39432;51.902;10.844;2023-06-04T06:22:20;100073.06;;;20.76;43.40
53546;BME280;39432;51.902;10.844;2023-06-04T06:24:52;100083.03;;;18.50;48.43
53546;BME280;39432;51.902;10.844;2023-06-04T06:27:22;100082.84;;;19.36;46.63
53546;BME280;39432;51.902;10.844;2023-06-04T06:29:52;100092.09;;;18.37;48.49
53546;BME280;39432;51.902;10.844;2023-06-04T06:32:22;100076.88;;;20.16;46.35
53546;BME280;39432;51.902;10.844;2023-06-04T06:34:52;100080.72;;;20.93;45.86
53546;BME280;39432;51.902;10.844;2023-06-04T06:37:22;100091.38;;;21.58;43.62
53546;BME280;39432;51.902;10.844;2023-06-04T06:39:54;100090.81;;;19.24;45.74
53546;BME280;39432;51.902;10.844;2023-06-04T06:42:24;100097.63;;;18.80;50.10
53546;BME280;39432;51.902;10.844;2023-06-04T06:44:55;100091.09;;;20.78;48.33
53546;BME280;39432;51.902;10.844;2023-06-04T06:47:25;100095.28;;;20.90;45.23
53546;BME280;39432;51.902;10.844;2023-06-04T06:49:55;100091.47;;;21.44;46.41
53546;BME280;39432;51.902;10.844;2023-06-04T06:52:25;100100.31;;;19.69;46.96
53546;BME280;39432;51.902;10.844;2023-06-04T06:54:57;100097.47;;;21.60;45.46
53546;BME280;39432;51.902;10.844;2023-06-04T06:57:27;100100.72;;;21.62;46.06
53546;BME280;39432;51.902;10.844;2023-06-04T06:59:57;100101.44;;;22.07;46.03
53546;BME280;39432;51.902;10.844;2023-06-04T07:02:27;100097.91;;;20.72;46.42
53546;BME280;39432;51.902;10.844;2023-06-04T07:04:57;100108.31;;;19.70;47.89
53546;BME280;39432;51.902;10.844;2023-06-04T07:07:26;100112.16;;;19.42;47.98
53546;BME280;39432;51.902;10.844;2023-06-04T07:09:59;100102.78;;;19.38;48.87
53546;BME280;39432;51.902;10.844;2023-06-04T07:12:30;100105.63;;;19.65;50.26
53546;BME280;39432;51.902;10.844;2023-06-04T07:15:00;100114.94;;;20.02;49.09
53546;BME280;39432;51.902;10.844;2023-06-04T07:17:30;100105.03;;;21.23;48.15
53546;BME280;39432;51.902;10.844;2023-06-04T07:20:00;100104.94;;;21.51;44.04
53546;BME280;39432;51.902;10.844;2023-06-04T07:22:30;100105.69;;;20.62;44.82
53546;BME280;39432;51.902;10.844;2023-06-04T07:25:03;100105.44;;;19.10;48.31
53546;BME280;39432;51.902;10.844;2023-06-04T07:27:34;100099.78;;;22.55;45.76
53546;BME280;39432;51.902;10.844;2023-06-04T07:30:05;100101.66;;;19.99;45.29
53546;BME280;39432;51.902;10.844;2023-06-04T07:32:35;100108.53;;;21.82;44.19
53546;BME280;39432;51.902;10.844;2023-06-04T07:35:07;100107.28;;;22.28;42.54
53546;BME280;39432;51.902;10.844;2023-06-04T07:37:37;100107.28;;;21.97;42.23
53546;BME280;39432;51.902;10.844;2023-06-04T07:40:10;100114.28;;;19.78;44.41
53546;BME280;39432;51.902;10.844;2023-06-04T07:42:41;100115.09;;;22.75;41.10
53546;BME280;39432;51.902;10.844;2023-06-04T07:45:11;100119.53;;;22.10;41.73
53546;BME280;39432;51.902;10.844;2023-06-04T07:47:41;100121.34;;;22.80;40.60
53546;BME280;39432;51.902;10.844;2023-06-04T07:50:12;100118.66;;;22.58;41.76
53546;BME280;39432;51.902;10.844;2023-06-04T07:52:41;100120.50;;;21.29;41.70
53546;BME280;39432;51.902;10.844;2023-06-04T07:55:14;100119.78;;;21.24;39.41
53546;BME280;39432;51.902;10.844;2023-06-04T07:57:44;100117.94;;;20.97;40.41
53546;BME280;39432;51.902;10.844;2023-06-04T08:00:15;100117.69;;;20.71;42.62
53546;BME280;39432;51.902;10.844;2023-06-04T08:02:44;100121.44;;;20.66;42.36
53546;BME280;39432;51.902;10.844;2023-06-04T08:05:15;100109.34;;;20.71;41.18
53546;BME280;39432;51.902;10.844;2023-06-04T08:07:45;100113.03;;;19.56;42.93
53546;BME280;39432;51.902;10.844;2023-06-04T08:10:18;100120.69;;;19.13;41.32
53546;BME280;39432;51.902;10.844;2023-06-04T08:12:48;100106.09;;;21.14;39.68
53546;BME280;39432;51.902;10.844;2023-06-04T08:15:17;100113.16;;;21.56;39.31
53546;BME280;39432;51.902;10.844;2023-06-04T08:18:07;100109.69;;;20.92;42.16
53546;BME280;39432;51.902;10.844;2023-06-04T08:20:44;100116.50;;;22.06;38.00
53546;BME280;39432;51.902;10.844;2023-06-04T08:23:29;100110.13;;;22.54;35.98
53546;BME280;39432;51.902;10.844;2023-06-04T08:26:21;100121.38;;;23.15;34.70
53546;BME280;39432;51.902;10.844;2023-06-04T08:29:02;100122.16;;;20.44;39.62
53546;BME280;39432;51.902;10.844;2023-06-04T08:31:36;100122.44;;;21.07;40.04
53546;BME280;39432;51.902;10.844;2023-06-04T08:34:26;100128.88;;;22.14;36.58
53546;BME280;39432;51.902;10.844;2023-06-04T08:36:56;100118.91;;;22.22;36.95
53546;BME280;39432;51.902;10.844;2023-06-04T08:39:26;100112.78;;;24.10;35.37
53546;BME280;39432;51.902;10.844;2023-06-04T08:42:00;100125.28;;;22.22;36.79
53546;BME280;39432;51.902;10.844;2023-06-04T08:44:31;100123.53;;;24.88;35.02
53546;BME280;39432;51.902;10.844;2023-06-04T08:47:03;100125.47;;;23.09;35.65
53546;BME280;39432;51.902;10.844;2023-06-04T08:49:35;100138.84;;;22.55;35.79
53546;BME280;39432;51.902;10.844;2023-06-04T08:52:07;100131.69;;;22.23;37.20
53546;BME280;39432;51.902;10.844;2023-06-04T08:54:37;100128.75;;;22.94;36.40
53546;BME280;39432;51.902;10.844;2023-06-04T08:57:10;100126.94;;;22.89;36.47
53546;BME280;39432;51.902;10.844;2023-06-04T08:59:40;100128.69;;;21.12;37.60
53546;BME280;39432;51.902;10.844;2023-06-04T09:02:11;100135.41;;;21.11;39.25
53546;BME280;39432;51.902;10.844;2023-06-04T09:04:41;100124.13;;;20.44;39.07
53546;BME280;39432;51.902;10.844;2023-06-04T09:07:12;100132.13;;;20.73;40.16
53546;BME280;39432;51.902;10.844;2023-06-04T09:09:45;100134.41;;;20.30;39.65
53546;BME280;39432;51.902;10.844;2023-06-04T09:12:42;100129.16;;;20.14;40.21
53546;BME280;39432;51.902;10.844;2023-06-04T09:15:12;100125.78;;;20.95;38.84
53546;BME280;39432;51.902;10.844;2023-06-04T09:17:42;100130.69;;;20.98;39.13
53546;BME280;39432;51.902;10.844;2023-06-04T09:20:19;100125.84;;;20.53;38.39
53546;BME280;39432;51.902;10.844;2023-06-04T09:22:49;100132.84;;;20.65;37.49
53546;BME280;39432;51.902;10.844;2023-06-04T09:25:20;100118.06;;;21.59;37.42
53546;BME280;39432;51.902;10.844;2023-06-04T09:27:56;100115.25;;;21.50;38.43
53546;BME280;39432;51.902;10.844;2023-06-04T09:30:26;100138.63;;;20.13;39.60
53546;BME280;39432;51.902;10.844;2023-06-04T09:33:06;100129.13;;;19.73;40.03
53546;BME280;39432;51.902;10.844;2023-06-04T09:35:36;100120.22;;;20.81;38.95
53546;BME280;39432;51.902;10.844;2023-06-04T09:38:06;100108.75;;;21.33;38.90
53546;BME280;39432;51.902;10.844;2023-06-04T09:40:36;100123.16;;;21.57;38.38
53546;BME280;39432;51.902;10.844;2023-06-04T09:43:10;100112.56;;;21.23;37.54
53546;BME280;39432;51.902;10.844;2023-06-04T09:45:40;100118.47;;;21.66;37.29
53546;BME280;39432;51.902;10.844;2023-06-04T09:48:19;100124.06;;;21.44;36.76
53546;BME280;39432;51.902;10.844;2023-06-04T09:50:49;100118.53;;;21.52;37.63
53546;BME280;39432;51.902;10.844;2023-06-04T09:53:20;100122.88;;;21.22;37.41
53546;BME280;39432;51.902;10.844;2023-06-04T09:55:59;100122.38;;;22.27;36.62
53546;BME280;39432;51.902;10.844;2023-06-04T09:58:33;100129.72;;;20.80;38.12
53546;BME280;39432;51.902;10.844;2023-06-04T10:01:05;100122.06;;;21.67;37.83
53546;BME280;39432;51.902;10.844;2023-06-04T10:03:36;100126.28;;;21.33;37.15
53546;BME280;39432;51.902;10.844;2023-06-04T10:06:06;100124.59;;;20.73;38.72
53546;BME280;39432;51.902;10.844;2023-06-04T10:08:39;100127.75;;;20.81;38.98
53546;BME280;39432;51.902;10.844;2023-06-04T10:11:11;100120.81;;;21.50;38.84
53546;BME280;39432;51.902;10.844;2023-06-04T10:13:48;100114.16;;;21.91;37.25
53546;BME280;39432;51.902;10.844;2023-06-04T10:16:21;100118.31;;;21.71;37.62
53546;BME280;39432;51.902;10.844;2023-06-04T10:19:00;100124.44;;;20.56;38.07
53546;BME280;39432;51.902;10.844;2023-06-04T10:21:32;100132.56;;;20.52;38.71
53546;BME280;39432;51.902;10.844;2023-06-04T10:24:03;100121.13;;;20.54;38.42
53546;BME280;39432;51.902;10.844;2023-06-04T10:26:33;100121.81;;;21.86;37.85
53546;BME280;39432;51.902;10.844;2023-06-04T10:29:06;100116.16;;;21.68;37.33
53546;BME280;39432;51.902;10.844;2023-06-04T10:31:37;100127.00;;;20.39;38.37
53546;BME280;39432;51.902;10.844;2023-06-04T10:34:08;100113.72;;;21.98;36.86
53546;BME280;39432;51.902;10.844;2023-06-04T10:36:42;100120.44;;;22.37;36.76
53546;BME280;39432;51.902;10.844;2023-06-04T10:39:13;100112.00;;;21.57;36.87
53546;BME280;39432;51.902;10.844;2023-06-04T10:41:43;100113.31;;;22.22;36.94
53546;BME280;39432;51.902;10.844;2023-06-04T10:44:16;100115.34;;;22.39;36.69
53546;BME280;39432;51.902;10.844;2023-06-04T10:46:45;100112.41;;;22.04;36.51
53546;BME280;39432;51.902;10.844;2023-06-04T10:49:26;100117.78;;;21.38;37.88
53546;BME280;39432;51.902;10.844;2023-06-04T10:51:56;100120.09;;;21.00;38.29
53546;BME280;39432;51.902;10.844;2023-06-04T10:54:30;100114.16;;;21.60;37.84
53546;BME280;39432;51.902;10.844;2023-06-04T10:57:10;100116.44;;;21.58;37.92
53546;BME280;39432;51.902;10.844;2023-06-04T10:59:53;100111.56;;;21.41;37.84
53546;BME280;39432;51.902;10.844;2023-06-04T11:02:23;100110.81;;;20.41;38.74
53546;BME280;39432;51.902;10.844;2023-06-04T11:05:01;100105.44;;;21.84;38.10
53546;BME280;39432;51.902;10.844;2023-06-04T11:07:42;100113.78;;;21.53;37.40
53546;BME280;39432;51.902;10.844;2023-06-04T11:10:13;100114.69;;;22.02;38.29
53546;BME280;39432;51.902;10.844;2023-06-04T11:12:44;100106.47;;;21.35;39.22
53546;BME280;39432;51.902;10.844;2023-06-04T11:15:16;100113.75;;;21.75;38.12
53546;BME280;39432;51.902;10.844;2023-06-04T11:17:50;100102.78;;;23.02;36.56
53546;BME280;39432;51.902;10.844;2023-06-04T11:20:21;100110.97;;;21.44;37.56
53546;BME280;39432;51.902;10.844;2023-06-04T11:22:53;100102.78;;;22.10;38.45
53546;BME280;39432;51.902;10.844;2023-06-04T11:25:23;100102.09;;;22.53;36.29
53546;BME280;39432;51.902;10.844;2023-06-04T11:27:55;100110.25;;;22.41;35.96
53546;BME280;39432;51.902;10.844;2023-06-04T11:30:28;100103.19;;;21.95;37.83
53546;BME280;39432;51.902;10.844;2023-06-04T11:33:02;100106.09;;;21.14;37.51
53546;BME280;39432;51.902;10.844;2023-06-04T11:35:40;100102.22;;;20.78;37.24
53546;BME280;39432;51.902;10.844;2023-06-04T11:38:10;100095.16;;;21.62;37.39
53546;BME280;39432;51.902;10.844;2023-06-04T11:40:39;100103.91;;;21.47;37.06
53546;BME280;39432;51.902;10.844;2023-06-04T11:43:11;100098.91;;;22.20;36.29
53546;BME280;39432;51.902;10.844;2023-06-04T11:45:44;100085.41;;;22.87;35.11
53546;BME280;39432;51.902;10.844;2023-06-04T11:48:14;100103.28;;;22.12;35.69
53546;BME280;39432;51.902;10.844;2023-06-04T11:50:44;100093.91;;;21.46;36.09
53546;BME280;39432;51.902;10.844;2023-06-04T11:53:15;100102.59;;;20.86;36.42
53546;BME280;39432;51.902;10.844;2023-06-04T11:55:46;100089.59;;;22.42;35.56
53546;BME280;39432;51.902;10.844;2023-06-04T11:58:16;100091.41;;;22.55;34.93
53546;BME280;39432;51.902;10.844;2023-06-04T12:00:49;100092.91;;;22.61;34.73
53546;BME280;39432;51.902;10.844;2023-06-04T12:03:19;100097.78;;;22.47;36.61
53546;BME280;39432;51.902;10.844;2023-06-04T12:05:49;100097.16;;;22.01;36.09
53546;BME280;39432;51.902;10.844;2023-06-04T12:08:19;100092.38;;;22.02;35.85
53546;BME280;39432;51.902;10.844;2023-06-04T12:10:48;100100.19;;;21.82;36.54
53546;BME280;39432;51.902;10.844;2023-06-04T12:13:18;100095.84;;;22.07;36.44
53546;BME280;39432;51.902;10.844;2023-06-04T12:15:53;100087.09;;;21.29;38.33
53546;BME280;39432;51.902;10.844;2023-06-04T12:18:23;100084.47;;;21.55;38.83
53546;BME280;39432;51.902;10.844;2023-06-04T12:20:53;100090.50;;;22.11;37.90
53546;BME280;39432;51.902;10.844;2023-06-04T12:23:23;100085.56;;;21.77;37.21
53546;BME280;39432;51.902;10.844;2023-06-04T12:25:53;100093.22;;;21.18;37.42
53546;BME280;39432;51.902;10.844;2023-06-04T12:28:23;100087.34;;;22.04;36.86
53546;BME280;39432;51.902;10.844;2023-06-04T12:30:55;100074.34;;;23.43;35.87
53546;BME280;39432;51.902;10.844;2023-06-04T12:33:25;100079.25;;;21.94;36.69
53546;BME280;39432;51.902;10.844;2023-06-04T12:35:55;100077.16;;;22.48;36.13
53546;BME280;39432;51.902;10.844;2023-06-04T12:38:25;100073.56;;;22.91;36.20
53546;BME280;39432;51.902;10.844;2023-06-04T12:40:55;100077.78;;;23.49;35.58
53546;BME280;39432;51.902;10.844;2023-06-04T12:43:24;100081.13;;;22.81;35.78
53546;BME280;39432;51.902;10.844;2023-06-04T12:45:57;100082.44;;;23.10;35.52
53546;BME280;39432;51.902;10.844;2023-06-04T12:48:27;100078.00;;;23.00;35.94
53546;BME280;39432;51.902;10.844;2023-06-04T12:50:57;100077.44;;;21.89;36.42
53546;BME280;39432;51.902;10.844;2023-06-04T12:53:27;100087.75;;;21.89;36.32
53546;BME280;39432;51.902;10.844;2023-06-04T12:55:57;100078.53;;;21.79;36.61
53546;BME280;39432;51.902;10.844;2023-06-04T12:58:27;100078.09;;;21.55;36.00
53546;BME280;39432;51.902;10.844;2023-06-04T13:01:00;100078.31;;;22.07;36.30
53546;BME280;39432;51.902;10.844;2023-06-04T13:03:31;100068.25;;;22.46;36.12